Wan Hai 501 — S6AS7 — position and weather

sailwx.info

Track history (hours):
 
Tides and Currents Weather Stations Pressure Air Temp Water Temp Dewpoint Dewpoint Depression Visibility Wind Speed Wind Dir Waves Ship Positions

Wan Hai 501

Last reported at 2017-Jun-23 13:03 UTC. Time now 2017-Jun-25 13:41 UTC.
Position N 35°06' E 139°44'.

Length 269 m; draft 11.1 m.

Type: Cargo ship. MMSI: 563382000.

Date/timePositionNaut miles runAvg speedWind from/ knotsBaromVisibWave heightAir tempDewpointWater temp
2017-Jun-23 13:03N 35°06' E 139°44'118.3
2017-Jun-23 12:59N 35°07' E 139°44'713.6
2017-Jun-23 12:30N 35°13' E 139°46'611.6
2017-Jun-23 12:00N 35°19' E 139°44'713.3
2017-Jun-23 11:31N 35°25' E 139°44'816.2
2017-Jun-23 11:01N 35°31' E 139°51'713.1
2017-Jun-23 10:30N 35°36' E 139°47'1 1.3
2017-Jun-23 09:56N 35°36' E 139°46'0 0.0
2017-Jun-23 09:29N 35°36' E 139°46'0 0.0
2017-Jun-23 08:59N 35°36' E 139°46'0 0.0
2017-Jun-23 08:29N 35°36' E 139°46'0 0.0
2017-Jun-23 07:56N 35°36' E 139°46'0 0.0
2017-Jun-23 07:29N 35°36' E 139°46'0 0.0
2017-Jun-23 06:56N 35°36' E 139°46'0 0.0
2017-Jun-23 06:29N 35°36' E 139°46'0 0.0
2017-Jun-23 05:59N 35°36' E 139°46'0 0.0
2017-Jun-23 05:29N 35°36' E 139°46'0 0.0
2017-Jun-23 04:59N 35°36' E 139°46'0 0.0
2017-Jun-23 04:29N 35°36' E 139°46'0 0.0
2017-Jun-23 03:59N 35°36' E 139°46'0 0.0
2017-Jun-23 03:29N 35°36' E 139°46'0 0.0
2017-Jun-23 02:59N 35°36' E 139°46'0 0.0
2017-Jun-23 02:29N 35°36' E 139°46'0 0.0
2017-Jun-23 01:59N 35°36' E 139°46'0 0.0
2017-Jun-23 01:29N 35°36' E 139°46'0 0.0
2017-Jun-23 00:59N 35°36' E 139°46'0 0.0
2017-Jun-23 00:29N 35°36' E 139°46'0 0.0
2017-Jun-22 23:59N 35°36' E 139°46'0 0.0
2017-Jun-22 23:29N 35°36' E 139°46'0 0.0
2017-Jun-22 22:59N 35°36' E 139°46'0 0.0
2017-Jun-22 22:29N 35°36' E 139°46'0 0.0
2017-Jun-22 21:59N 35°36' E 139°46'0 0.0
2017-Jun-22 21:29N 35°36' E 139°46'0 0.0
2017-Jun-22 20:59N 35°36' E 139°46'0 0.0
2017-Jun-22 20:29N 35°36' E 139°46'0 0.0
2017-Jun-22 19:59N 35°36' E 139°46'0 0.0
2017-Jun-22 19:29N 35°36' E 139°46'0 0.0
2017-Jun-22 18:59N 35°36' E 139°46'0 0.0
2017-Jun-22 18:29N 35°36' E 139°46'0 0.0
2017-Jun-22 17:59N 35°36' E 139°46'0 0.0
2017-Jun-22 17:29N 35°36' E 139°46'0 0.0
2017-Jun-22 16:56N 35°36' E 139°46'0 0.0
2017-Jun-22 16:29N 35°36' E 139°46'0 0.0
2017-Jun-22 15:59N 35°36' E 139°46'0 0.0
2017-Jun-22 15:29N 35°36' E 139°46'0 0.0
2017-Jun-22 14:59N 35°36' E 139°46'0 0.0
2017-Jun-22 14:29N 35°36' E 139°46'0 0.0
2017-Jun-22 13:29N 35°36' E 139°46'0 0.0
2017-Jun-22 12:59N 35°36' E 139°46'0 0.0
2017-Jun-22 12:29N 35°36' E 139°46'0 0.5
2017-Jun-22 12:00N 35°36' E 139°46'3 6.1
2017-Jun-22 11:30N 35°34' E 139°49'4 8.7
2017-Jun-22 11:00N 35°31' E 139°52'611.5
2017-Jun-22 10:30N 35°26' E 139°48'611.0
2017-Jun-22 10:01N 35°27' E 139°41'0 0.7
2017-Jun-22 09:31N 35°26' E 139°41'0 0.0
2017-Jun-22 08:58N 35°26' E 139°41'0 0.0
2017-Jun-22 08:28N 35°26' E 139°41'0 0.0
2017-Jun-22 07:58N 35°26' E 139°41'0 0.0
2017-Jun-22 07:28N 35°26' E 139°41'0 0.0
2017-Jun-22 06:58N 35°26' E 139°41'0 0.0
2017-Jun-22 06:28N 35°26' E 139°41'0 0.0
2017-Jun-22 05:58N 35°26' E 139°41'0 0.0
2017-Jun-22 05:28N 35°26' E 139°41'0 0.0
2017-Jun-22 04:58N 35°26' E 139°41'0 0.0
2017-Jun-22 04:28N 35°26' E 139°41'0 0.0
2017-Jun-22 03:58N 35°26' E 139°41'0 0.0
2017-Jun-22 03:28N 35°26' E 139°41'0 0.0
2017-Jun-22 02:58N 35°26' E 139°41'0 0.0
2017-Jun-22 02:28N 35°26' E 139°41'0 0.0
2017-Jun-22 01:58N 35°26' E 139°41'0 0.0
2017-Jun-22 01:28N 35°26' E 139°41'0 0.0
2017-Jun-22 00:58N 35°26' E 139°41'0 0.0
2017-Jun-22 00:28N 35°26' E 139°41'0 0.0
2017-Jun-21 23:58N 35°26' E 139°41'0 0.1
2017-Jun-21 23:30N 35°26' E 139°41'2 4.2
2017-Jun-21 23:00N 35°25' E 139°43'510.9
2017-Jun-21 22:30N 35°20' E 139°43'612.9
2017-Jun-21 22:00N 35°15' E 139°47'611.7
2017-Jun-21 21:31N 35°09' E 139°46'510.5
2017-Jun-21 21:00N 35°04' E 139°43'1018.6
2017-Jun-21 20:29N 34°58' E 139°34'236 7.1
2017-Jun-20 11:25N 33°53' E 134°59'818.6
2017-Jun-20 11:00N 34°00' E 134°57'1019.2
2017-Jun-20 10:31N 34°09' E 134°55'611.3
2017-Jun-20 10:00N 34°15' E 134°58'815.0
2017-Jun-20 09:30N 34°22' E 135°00'917.8
2017-Jun-20 09:00N 34°29' E 135°07'918.5
2017-Jun-20 08:30N 34°35' E 135°15'4 7.7
2017-Jun-20 08:00N 34°39' E 135°15'0 0.1
2017-Jun-20 07:26N 34°39' E 135°15'0 0.0
2017-Jun-20 06:56N 34°39' E 135°15'0 0.0
2017-Jun-20 06:14N 34°39' E 135°15'0 0.0
2017-Jun-20 05:50N 34°39' E 135°15'0 0.0
2017-Jun-20 05:26N 34°39' E 135°15'0 0.0
2017-Jun-20 04:56N 34°39' E 135°15'0 0.0
2017-Jun-20 04:14N 34°39' E 135°15'0 0.0
2017-Jun-20 03:56N 34°39' E 135°15'0 0.0
2017-Jun-20 03:26N 34°39' E 135°15'0 0.0
2017-Jun-20 02:38N 34°39' E 135°15'0 0.0
2017-Jun-20 02:20N 34°39' E 135°15'0 0.0
2017-Jun-20 01:56N 34°39' E 135°15'0 0.0
2017-Jun-20 01:20N 34°39' E 135°15'0 0.0
2017-Jun-20 00:56N 34°39' E 135°15'0 0.0
2017-Jun-20 00:20N 34°39' E 135°15'0 0.0
2017-Jun-19 23:50N 34°39' E 135°15'0 0.0
2017-Jun-19 23:26N 34°39' E 135°15'0 0.0
2017-Jun-19 22:55N 34°39' E 135°15'1 1.6
2017-Jun-19 22:30N 34°39' E 135°15'510.7
2017-Jun-19 22:00N 34°39' E 135°22'4 8.0
2017-Jun-19 21:30N 34°38' E 135°27'0 0.5
2017-Jun-19 21:00N 34°38' E 135°26'0 0.0
2017-Jun-19 20:23N 34°38' E 135°26'0 0.0
2017-Jun-19 19:59N 34°38' E 135°26'0 0.0
2017-Jun-19 19:29N 34°38' E 135°26'0 0.0
2017-Jun-19 18:47N 34°38' E 135°26'0 0.0
2017-Jun-19 18:29N 34°38' E 135°26'0 0.0
2017-Jun-19 17:47N 34°38' E 135°26'0 0.0
2017-Jun-19 17:29N 34°38' E 135°26'0 0.0
2017-Jun-19 16:59N 34°38' E 135°26'0 0.0
2017-Jun-19 16:23N 34°38' E 135°26'0 0.0
2017-Jun-19 15:59N 34°38' E 135°26'0 0.0
2017-Jun-19 15:17N 34°38' E 135°26'0 0.0
2017-Jun-19 14:23N 34°38' E 135°26'0 0.0
2017-Jun-19 13:29N 34°38' E 135°26'0 0.0
2017-Jun-19 12:41N 34°38' E 135°26'0 0.0
2017-Jun-19 12:29N 34°38' E 135°26'0 0.0
2017-Jun-19 11:53N 34°38' E 135°26'0 0.0
2017-Jun-19 11:23N 34°38' E 135°26'0 0.0
2017-Jun-19 10:53N 34°38' E 135°26'0 0.0
2017-Jun-19 10:29N 34°38' E 135°26'0 0.0
2017-Jun-19 09:59N 34°38' E 135°26'0 0.0
2017-Jun-19 09:29N 34°38' E 135°26'0 0.0
2017-Jun-19 08:35N 34°38' E 135°26'0 0.0
2017-Jun-19 08:29N 34°38' E 135°26'0 0.0
2017-Jun-19 07:53N 34°38' E 135°26'0 0.0
2017-Jun-19 07:29N 34°38' E 135°26'0 0.0
2017-Jun-19 05:29N 34°38' E 135°26'0 0.0
2017-Jun-19 04:11N 34°38' E 135°26'0 0.0
2017-Jun-19 03:59N 34°38' E 135°26'0 0.0
2017-Jun-19 03:29N 34°38' E 135°26'0 0.0
2017-Jun-19 02:59N 34°38' E 135°26'0 0.0
2017-Jun-19 02:23N 34°38' E 135°26'0 0.0
2017-Jun-19 01:59N 34°38' E 135°26'0 0.0
2017-Jun-19 01:29N 34°38' E 135°26'0 0.0
2017-Jun-19 00:59N 34°38' E 135°26'0 0.0
2017-Jun-19 00:29N 34°38' E 135°26'0 0.0
2017-Jun-18 23:41N 34°38' E 135°26'0 0.0
2017-Jun-18 23:11N 34°38' E 135°26'0 0.0
2017-Jun-18 22:53N 34°38' E 135°26'0 0.0
2017-Jun-18 22:29N 34°38' E 135°26'0 0.0
2017-Jun-18 21:23N 34°38' E 135°26'0 0.0
2017-Jun-18 20:59N 34°38' E 135°26'0 0.0
2017-Jun-18 20:29N 34°38' E 135°26'0 0.0
2017-Jun-18 19:53N 34°38' E 135°26'0 0.0
2017-Jun-18 19:29N 34°38' E 135°26'0 0.0
2017-Jun-18 18:59N 34°38' E 135°26'0 0.0
2017-Jun-18 18:29N 34°38' E 135°26'0 0.0
2017-Jun-18 17:47N 34°38' E 135°26'0 0.0
2017-Jun-18 17:29N 34°38' E 135°26'0 0.0
2017-Jun-18 16:53N 34°38' E 135°26'0 0.0
2017-Jun-18 16:29N 34°38' E 135°26'0 0.0
2017-Jun-18 15:59N 34°38' E 135°26'0 0.0
2017-Jun-18 15:29N 34°38' E 135°26'0 0.0
2017-Jun-18 14:47N 34°38' E 135°26'0 0.0
2017-Jun-18 13:59N 34°38' E 135°26'0 0.0
2017-Jun-18 12:41N 34°38' E 135°26'0 0.0
2017-Jun-18 12:29N 34°38' E 135°26'0 0.0
2017-Jun-18 11:53N 34°38' E 135°26'0 0.0
2017-Jun-18 11:17N 34°38' E 135°26'0 0.0
2017-Jun-18 10:59N 34°38' E 135°26'0 0.1
2017-Jun-18 10:30N 34°38' E 135°27'3 5.6
2017-Jun-18 10:00N 34°38' E 135°23'714.7
2017-Jun-18 09:30N 34°33' E 135°17'917.1
2017-Jun-18 09:00N 34°27' E 135°10'917.8
2017-Jun-18 08:30N 34°21' E 135°02'816.6
2017-Jun-18 08:00N 34°13' E 134°59'612.3
2017-Jun-18 07:31N 34°06' E 134°60'917.4
2017-Jun-18 07:00N 33°58' E 134°58'  
2017-Jun-15 10:45N 22°19' E 114°06'1 0.1
2017-Jun-14 22:20N 22°19' E 114°07'  
Track history (hours):
 
Tides and Currents Weather Stations Pressure Air Temp Water Temp Dewpoint Dewpoint Depression Visibility Wind Speed Wind Dir Waves Ship Positions

Wan Hai 501

Last reported at 2017-Jun-23 13:03 UTC. Time now 2017-Jun-25 13:41 UTC.
Position N 35°06' E 139°44'.

Length 269 m; draft 11.1 m.

Type: Cargo ship. MMSI: 563382000.

Date/timePositionNaut miles runAvg speedWind from/ knotsBaromVisibWave heightAir tempDewpointWater temp
2017-Jun-23 13:03N 35°06' E 139°44'118.3
2017-Jun-23 12:59N 35°07' E 139°44'713.6
2017-Jun-23 12:30N 35°13' E 139°46'611.6
2017-Jun-23 12:00N 35°19' E 139°44'713.3
2017-Jun-23 11:31N 35°25' E 139°44'816.2
2017-Jun-23 11:01N 35°31' E 139°51'713.1
2017-Jun-23 10:30N 35°36' E 139°47'1 1.3
2017-Jun-23 09:56N 35°36' E 139°46'0 0.0
2017-Jun-23 09:29N 35°36' E 139°46'0 0.0
2017-Jun-23 08:59N 35°36' E 139°46'0 0.0
2017-Jun-23 08:29N 35°36' E 139°46'0 0.0
2017-Jun-23 07:56N 35°36' E 139°46'0 0.0
2017-Jun-23 07:29N 35°36' E 139°46'0 0.0
2017-Jun-23 06:56N 35°36' E 139°46'0 0.0
2017-Jun-23 06:29N 35°36' E 139°46'0 0.0
2017-Jun-23 05:59N 35°36' E 139°46'0 0.0
2017-Jun-23 05:29N 35°36' E 139°46'0 0.0
2017-Jun-23 04:59N 35°36' E 139°46'0 0.0
2017-Jun-23 04:29N 35°36' E 139°46'0 0.0
2017-Jun-23 03:59N 35°36' E 139°46'0 0.0
2017-Jun-23 03:29N 35°36' E 139°46'0 0.0
2017-Jun-23 02:59N 35°36' E 139°46'0 0.0
2017-Jun-23 02:29N 35°36' E 139°46'0 0.0
2017-Jun-23 01:59N 35°36' E 139°46'0 0.0
2017-Jun-23 01:29N 35°36' E 139°46'0 0.0
2017-Jun-23 00:59N 35°36' E 139°46'0 0.0
2017-Jun-23 00:29N 35°36' E 139°46'0 0.0
2017-Jun-22 23:59N 35°36' E 139°46'0 0.0
2017-Jun-22 23:29N 35°36' E 139°46'0 0.0
2017-Jun-22 22:59N 35°36' E 139°46'0 0.0
2017-Jun-22 22:29N 35°36' E 139°46'0 0.0
2017-Jun-22 21:59N 35°36' E 139°46'0 0.0
2017-Jun-22 21:29N 35°36' E 139°46'0 0.0
2017-Jun-22 20:59N 35°36' E 139°46'0 0.0
2017-Jun-22 20:29N 35°36' E 139°46'0 0.0
2017-Jun-22 19:59N 35°36' E 139°46'0 0.0
2017-Jun-22 19:29N 35°36' E 139°46'0 0.0
2017-Jun-22 18:59N 35°36' E 139°46'0 0.0
2017-Jun-22 18:29N 35°36' E 139°46'0 0.0
2017-Jun-22 17:59N 35°36' E 139°46'0 0.0
2017-Jun-22 17:29N 35°36' E 139°46'0 0.0
2017-Jun-22 16:56N 35°36' E 139°46'0 0.0
2017-Jun-22 16:29N 35°36' E 139°46'0 0.0
2017-Jun-22 15:59N 35°36' E 139°46'0 0.0
2017-Jun-22 15:29N 35°36' E 139°46'0 0.0
2017-Jun-22 14:59N 35°36' E 139°46'0 0.0
2017-Jun-22 14:29N 35°36' E 139°46'0 0.0
2017-Jun-22 13:29N 35°36' E 139°46'0 0.0
2017-Jun-22 12:59N 35°36' E 139°46'0 0.0
2017-Jun-22 12:29N 35°36' E 139°46'0 0.5
2017-Jun-22 12:00N 35°36' E 139°46'3 6.1
2017-Jun-22 11:30N 35°34' E 139°49'4 8.7
2017-Jun-22 11:00N 35°31' E 139°52'611.5
2017-Jun-22 10:30N 35°26' E 139°48'611.0
2017-Jun-22 10:01N 35°27' E 139°41'0 0.7
2017-Jun-22 09:31N 35°26' E 139°41'0 0.0
2017-Jun-22 08:58N 35°26' E 139°41'0 0.0
2017-Jun-22 08:28N 35°26' E 139°41'0 0.0
2017-Jun-22 07:58N 35°26' E 139°41'0 0.0
2017-Jun-22 07:28N 35°26' E 139°41'0 0.0
2017-Jun-22 06:58N 35°26' E 139°41'0 0.0
2017-Jun-22 06:28N 35°26' E 139°41'0 0.0
2017-Jun-22 05:58N 35°26' E 139°41'0 0.0
2017-Jun-22 05:28N 35°26' E 139°41'0 0.0
2017-Jun-22 04:58N 35°26' E 139°41'0 0.0
2017-Jun-22 04:28N 35°26' E 139°41'0 0.0
2017-Jun-22 03:58N 35°26' E 139°41'0 0.0
2017-Jun-22 03:28N 35°26' E 139°41'0 0.0
2017-Jun-22 02:58N 35°26' E 139°41'0 0.0
2017-Jun-22 02:28N 35°26' E 139°41'0 0.0
2017-Jun-22 01:58N 35°26' E 139°41'0 0.0
2017-Jun-22 01:28N 35°26' E 139°41'0 0.0
2017-Jun-22 00:58N 35°26' E 139°41'0 0.0
2017-Jun-22 00:28N 35°26' E 139°41'0 0.0
2017-Jun-21 23:58N 35°26' E 139°41'0 0.1
2017-Jun-21 23:30N 35°26' E 139°41'2 4.2
2017-Jun-21 23:00N 35°25' E 139°43'510.9
2017-Jun-21 22:30N 35°20' E 139°43'612.9
2017-Jun-21 22:00N 35°15' E 139°47'611.7
2017-Jun-21 21:31N 35°09' E 139°46'510.5
2017-Jun-21 21:00N 35°04' E 139°43'1018.6
2017-Jun-21 20:29N 34°58' E 139°34'236 7.1
2017-Jun-20 11:25N 33°53' E 134°59'818.6
2017-Jun-20 11:00N 34°00' E 134°57'1019.2
2017-Jun-20 10:31N 34°09' E 134°55'611.3
2017-Jun-20 10:00N 34°15' E 134°58'815.0
2017-Jun-20 09:30N 34°22' E 135°00'917.8
2017-Jun-20 09:00N 34°29' E 135°07'918.5
2017-Jun-20 08:30N 34°35' E 135°15'4 7.7
2017-Jun-20 08:00N 34°39' E 135°15'0 0.1
2017-Jun-20 07:26N 34°39' E 135°15'0 0.0
2017-Jun-20 06:56N 34°39' E 135°15'0 0.0
2017-Jun-20 06:14N 34°39' E 135°15'0 0.0
2017-Jun-20 05:50N 34°39' E 135°15'0 0.0
2017-Jun-20 05:26N 34°39' E 135°15'0 0.0
2017-Jun-20 04:56N 34°39' E 135°15'0 0.0
2017-Jun-20 04:14N 34°39' E 135°15'0 0.0
2017-Jun-20 03:56N 34°39' E 135°15'0 0.0
2017-Jun-20 03:26N 34°39' E 135°15'0 0.0
2017-Jun-20 02:38N 34°39' E 135°15'0 0.0
2017-Jun-20 02:20N 34°39' E 135°15'0 0.0
2017-Jun-20 01:56N 34°39' E 135°15'0 0.0
2017-Jun-20 01:20N 34°39' E 135°15'0 0.0
2017-Jun-20 00:56N 34°39' E 135°15'0 0.0
2017-Jun-20 00:20N 34°39' E 135°15'0 0.0
2017-Jun-19 23:50N 34°39' E 135°15'0 0.0
2017-Jun-19 23:26N 34°39' E 135°15'0 0.0
2017-Jun-19 22:55N 34°39' E 135°15'1 1.6
2017-Jun-19 22:30N 34°39' E 135°15'510.7
2017-Jun-19 22:00N 34°39' E 135°22'4 8.0
2017-Jun-19 21:30N 34°38' E 135°27'0 0.5
2017-Jun-19 21:00N 34°38' E 135°26'0 0.0
2017-Jun-19 20:23N 34°38' E 135°26'0 0.0
2017-Jun-19 19:59N 34°38' E 135°26'0 0.0
2017-Jun-19 19:29N 34°38' E 135°26'0 0.0
2017-Jun-19 18:47N 34°38' E 135°26'0 0.0
2017-Jun-19 18:29N 34°38' E 135°26'0 0.0
2017-Jun-19 17:47N 34°38' E 135°26'0 0.0
2017-Jun-19 17:29N 34°38' E 135°26'0 0.0
2017-Jun-19 16:59N 34°38' E 135°26'0 0.0
2017-Jun-19 16:23N 34°38' E 135°26'0 0.0
2017-Jun-19 15:59N 34°38' E 135°26'0 0.0
2017-Jun-19 15:17N 34°38' E 135°26'0 0.0
2017-Jun-19 14:23N 34°38' E 135°26'0 0.0
2017-Jun-19 13:29N 34°38' E 135°26'0 0.0
2017-Jun-19 12:41N 34°38' E 135°26'0 0.0
2017-Jun-19 12:29N 34°38' E 135°26'0 0.0
2017-Jun-19 11:53N 34°38' E 135°26'0 0.0
2017-Jun-19 11:23N 34°38' E 135°26'0 0.0
2017-Jun-19 10:53N 34°38' E 135°26'0 0.0
2017-Jun-19 10:29N 34°38' E 135°26'0 0.0
2017-Jun-19 09:59N 34°38' E 135°26'0 0.0
2017-Jun-19 09:29N 34°38' E 135°26'0 0.0
2017-Jun-19 08:35N 34°38' E 135°26'0 0.0
2017-Jun-19 08:29N 34°38' E 135°26'0 0.0
2017-Jun-19 07:53N 34°38' E 135°26'0 0.0
2017-Jun-19 07:29N 34°38' E 135°26'0 0.0
2017-Jun-19 05:29N 34°38' E 135°26'0 0.0
2017-Jun-19 04:11N 34°38' E 135°26'0 0.0
2017-Jun-19 03:59N 34°38' E 135°26'0 0.0
2017-Jun-19 03:29N 34°38' E 135°26'0 0.0
2017-Jun-19 02:59N 34°38' E 135°26'0 0.0
2017-Jun-19 02:23N 34°38' E 135°26'0 0.0
2017-Jun-19 01:59N 34°38' E 135°26'0 0.0
2017-Jun-19 01:29N 34°38' E 135°26'0 0.0
2017-Jun-19 00:59N 34°38' E 135°26'0 0.0
2017-Jun-19 00:29N 34°38' E 135°26'0 0.0
2017-Jun-18 23:41N 34°38' E 135°26'0 0.0
2017-Jun-18 23:11N 34°38' E 135°26'0 0.0
2017-Jun-18 22:53N 34°38' E 135°26'0 0.0
2017-Jun-18 22:29N 34°38' E 135°26'0 0.0
2017-Jun-18 21:23N 34°38' E 135°26'0 0.0
2017-Jun-18 20:59N 34°38' E 135°26'0 0.0
2017-Jun-18 20:29N 34°38' E 135°26'0 0.0
2017-Jun-18 19:53N 34°38' E 135°26'0 0.0
2017-Jun-18 19:29N 34°38' E 135°26'0 0.0
2017-Jun-18 18:59N 34°38' E 135°26'0 0.0
2017-Jun-18 18:29N 34°38' E 135°26'0 0.0
2017-Jun-18 17:47N 34°38' E 135°26'0 0.0
2017-Jun-18 17:29N 34°38' E 135°26'0 0.0
2017-Jun-18 16:53N 34°38' E 135°26'0 0.0
2017-Jun-18 16:29N 34°38' E 135°26'0 0.0
2017-Jun-18 15:59N 34°38' E 135°26'0 0.0
2017-Jun-18 15:29N 34°38' E 135°26'0 0.0
2017-Jun-18 14:47N 34°38' E 135°26'0 0.0
2017-Jun-18 13:59N 34°38' E 135°26'0 0.0
2017-Jun-18 12:41N 34°38' E 135°26'0 0.0
2017-Jun-18 12:29N 34°38' E 135°26'0 0.0
2017-Jun-18 11:53N 34°38' E 135°26'0 0.0
2017-Jun-18 11:17N 34°38' E 135°26'0 0.0
2017-Jun-18 10:59N 34°38' E 135°26'0 0.1
2017-Jun-18 10:30N 34°38' E 135°27'3 5.6
2017-Jun-18 10:00N 34°38' E 135°23'714.7
2017-Jun-18 09:30N 34°33' E 135°17'917.1
2017-Jun-18 09:00N 34°27' E 135°10'917.8
2017-Jun-18 08:30N 34°21' E 135°02'816.6
2017-Jun-18 08:00N 34°13' E 134°59'612.3
2017-Jun-18 07:31N 34°06' E 134°60'917.4
2017-Jun-18 07:00N 33°58' E 134°58'  
2017-Jun-15 10:45N 22°19' E 114°06'1 0.1
2017-Jun-14 22:20N 22°19' E 114°07'  

Dump ship's entire track history